Latest Weather Observations for Troughton Island

IDD60801

Issued at 9:31 pm CST Monday 6 February 2023 (issued every 10 minutes, with the page automatically refreshed every 10 minutes)

About weather observations | Map of weather stations | Latest weather observations for NT | Other Formats
Station Details ID: 001007 Name: TROUGHTON ISLAND Lat: -13.75 Lon: 126.15 Height: 6.0 m
Data from the previous 72 hours. | See also: Recent months at Troughton Island
Date/Time
CST
Temp
°C
App
Temp
°C
Dew
Point
°C
Rel
Hum
%
Delta-T
°C
Wind Press
QNH
hPa
Press
MSL
hPa
Rain since
9am
mm
Dir  Spd
km/h
Gust
km/h
Spd
kts
Gust
kts
06/09:30pm 28.8 32.4 24.4 77 3.1 N 13 20 7 11 1007.7 1007.6 0.0
06/09:00pm 28.8 32.0 24.4 77 3.1 N 15 19 8 10 1007.5 1007.4 0.0
06/08:30pm 29.0 32.7 24.6 77 3.1 N 13 19 7 10 1007.2 1007.1 0.0
06/08:00pm 29.1 31.7 24.0 74 3.5 N 17 20 9 11 1007.0 1006.9 0.0
06/07:30pm 29.4 32.3 23.8 72 3.9 N 15 20 8 11 1006.8 1006.7 0.0
06/07:00pm 29.9 32.6 24.1 71 4.0 N 17 20 9 11 1006.3 1006.2 0.0
06/06:30pm 30.2 33.6 24.6 72 3.9 N 15 20 8 11 1005.9 1005.8 0.0
06/06:00pm 30.4 33.2 24.3 70 4.3 N 17 20 9 11 1005.5 1005.4 0.0
06/05:30pm 29.9 32.4 23.8 70 4.2 NNE 17 20 9 11 1005.2 1005.1 0.0
06/05:00pm 30.5 33.9 24.6 70 4.1 N 15 19 8 10 1005.2 1005.1 0.0
06/04:30pm 30.7 34.4 24.6 70 4.3 NNE 13 19 7 10 1005.5 1005.4 0.0
06/04:00pm 30.3 34.1 24.7 72 3.9 NNE 13 17 7 9 1005.7 1005.6 0.0
06/03:30pm 30.5 35.1 25.3 74 3.7 NNE 11 19 6 10 1005.9 1005.8 0.0
06/03:00pm 30.5 35.2 24.9 72 3.9 E 9 13 5 7 1006.0 1005.9 0.0
06/02:30pm 31.0 36.3 25.8 74 3.7 E 9 13 5 7 1006.1 1006.0 0.0
06/02:00pm 30.2 34.7 24.6 72 3.9 ESE 9 13 5 7 1006.5 1006.4 0.0
06/01:30pm 30.5 35.3 24.4 70 4.3 ESE 7 13 4 7 1007.0 1006.9 0.0
06/01:00pm 30.6 35.7 25.0 72 3.9 SE 7 11 4 6 1007.5 1007.4 0.0
06/12:30pm 30.4 35.4 24.8 72 3.9 ESE 7 11 4 6 1007.9 1007.8 0.0
06/12:00pm 30.6 35.5 25.2 73 3.8 ESE 9 13 5 7 1008.3 1008.2 0.0
06/11:30am 30.2 35.1 24.6 72 3.9 ESE 7 11 4 6 1008.4 1008.3 0.0
06/11:00am 30.2 34.6 24.4 71 4.0 ENE 9 11 5 6 1008.6 1008.5 0.0
06/10:30am 30.2 34.8 24.8 73 3.8 NE 9 11 5 6 1008.7 1008.6 0.0
06/10:00am 30.1 34.8 24.9 73 3.6 NE 9 11 5 6 1008.4 1008.3 0.0
06/09:30am 29.7 34.2 24.6 74 3.6 ENE 9 11 5 6 1008.3 1008.2 0.0
06/09:00am 29.4 33.7 24.3 74 3.5 ENE 9 11 5 6 1008.0 1007.9 0.0
06/08:30am 29.2 34.0 24.5 76 3.3 ENE 7 9 4 5 1007.8 1007.7 0.0
06/08:00am 28.3 34.7 24.9 82 2.4 CALM 0 0 0 0 1007.5 1007.4 0.0
06/07:30am 27.6 33.9 24.8 85 2.0 CALM 0 7 0 4 1007.2 1007.1 0.0
06/07:00am 27.1 33.3 24.6 86 1.7 CALM 0 2 0 1 1006.9 1006.8 0.0
06/06:30am 27.4 33.7 24.7 85 1.9 CALM 0 0 0 0 1006.7 1006.6 0.0
06/06:00am 27.3 33.5 24.6 85 1.9 CALM 0 0 0 0 1006.4 1006.3 0.0
06/05:30am 27.6 33.1 24.6 84 2.1 NNE 4 7 2 4 1006.3 1006.2 0.0
06/05:00am 27.5 33.3 24.6 84 2.0 NNE 2 6 1 3 1006.2 1006.1 0.0
06/04:30am 27.4 32.5 24.7 85 1.9 NNE 6 7 3 4 1006.2 1006.1 0.0
06/04:00am 27.4 33.7 24.7 85 1.9 CALM 0 0 0 0 1006.3 1006.2 0.0
06/03:30am 27.4 32.5 24.7 85 1.9 NE 6 7 3 4 1006.2 1006.1 0.0
06/03:00am 27.6 32.7 25.0 86 1.8 NNE 7 11 4 6 1006.2 1006.1 0.0
06/02:30am 27.6 32.8 24.8 85 2.0 N 6 7 3 4 1006.5 1006.4 0.0
06/02:00am 27.6 32.6 24.8 85 2.0 N 7 11 4 6 1006.6 1006.5 0.0
06/01:30am 27.6 33.9 24.8 85 2.0 CALM 0 7 0 4 1007.0 1006.9 0.0
06/01:00am 27.5 33.5 24.9 86 1.8 ENE 2 7 1 4 1007.2 1007.1 0.0
06/12:30am 27.8 33.1 25.0 85 2.0 ENE 6 7 3 4 1007.4 1007.3 0.0
06/12:00am 27.8 33.3 24.6 83 2.2 ENE 4 7 2 4 1007.5 1007.4 0.0
 
Date/Time
CST
Temp
°C
App
Temp
°C
Dew
Point
°C
Rel
Hum
%
Delta-T
°C
Wind Press
QNH
hPa
Press
MSL
hPa
Rain since
9am
mm
Dir  Spd
km/h
Gust
km/h
Spd
kts
Gust
kts
05/11:30pm 27.8 32.9 24.6 83 2.2 ENE 6 7 3 4 1007.6 1007.5 0.0
05/11:00pm 28.1 34.4 24.7 82 2.4 CALM 0 2 0 1 1007.4 1007.3 0.0
05/10:30pm 28.2 34.4 24.6 81 2.5 CALM 0 7 0 4 1007.4 1007.3 0.0
05/10:00pm 28.2 33.2 24.8 82 2.4 N 7 9 4 5 1007.4 1007.3 0.0
05/09:30pm 28.1 32.7 24.7 82 2.4 N 9 11 5 6 1007.0 1006.9 0.0
05/09:00pm 28.2 32.7 24.6 81 2.5 N 9 11 5 6 1006.7 1006.6 0.0
05/08:30pm 28.3 32.9 24.7 81 2.5 N 9 11 5 6 1006.6 1006.5 0.0
05/08:00pm 28.3 32.6 24.9 82 2.4 N 11 15 6 8 1006.2 1006.1 0.0
05/07:30pm 28.4 32.0 25.0 82 2.4 NNE 15 17 8 9 1005.7 1005.6 0.0
05/07:00pm 29.2 32.6 24.1 74 3.5 NNE 13 15 7 8 1005.4 1005.3 0.0
05/06:30pm 29.3 33.4 24.6 76 3.3 N 11 15 6 8 1005.1 1005.0 0.0
05/06:00pm 29.4 32.2 23.6 71 4.0 N 15 20 8 11 1004.6 1004.5 0.0
05/05:30pm 30.2 33.6 24.6 72 3.9 N 15 20 8 11 1004.4 1004.3 0.0
05/05:00pm 30.2 33.6 25.3 75 3.5 N 17 22 9 12 1004.2 1004.1 0.0
05/04:30pm 30.0 33.9 24.9 74 3.6 N 13 19 7 10 1004.4 1004.3 0.0
05/04:00pm 29.9 33.6 24.5 73 3.8 N 13 19 7 10 1004.6 1004.5 0.0
05/03:30pm 30.1 33.9 24.7 73 3.8 N 13 19 7 10 1004.6 1004.5 0.0
05/03:00pm 30.3 34.5 24.7 72 3.9 NNW 11 15 6 8 1005.0 1004.9 0.0
05/02:30pm 30.0 34.1 23.9 70 4.2 NNW 9 15 5 8 1005.3 1005.2 0.0
05/02:00pm 30.3 34.9 24.2 70 4.2 NNW 7 11 4 6 1005.6 1005.5 0.0
05/01:30pm 29.7 34.2 24.6 74 3.6 SSE 9 11 5 6 1005.9 1005.8 0.0
05/01:00pm 29.3 33.6 24.2 74 3.5 W 9 15 5 8 1006.2 1006.1 0.0
05/12:30pm 28.9 32.1 24.9 79 2.8 WSW 17 19 9 10 1006.4 1006.3 0.0
05/12:00pm 29.9 32.8 25.4 77 3.2 W 20 24 11 13 1006.7 1006.6 0.0
05/11:30am 29.2 32.0 25.2 79 2.8 WNW 20 24 11 13 1007.0 1006.9 0.0
05/11:00am 29.4 33.1 24.5 75 3.4 WNW 13 15 7 8 1007.0 1006.9 0.0
05/10:30am 29.6 33.6 25.1 77 3.2 NE 13 17 7 9 1007.2 1007.1 0.0
05/10:00am 30.3 33.7 24.7 72 3.9 ENE 15 17 8 9 1007.0 1006.9 0.0
05/09:30am 30.2 34.1 24.8 73 3.8 ENE 13 17 7 9 1006.8 1006.7 0.0
05/09:00am 29.7 33.6 24.8 75 3.4 ENE 13 17 7 9 1006.8 1006.7 0.0
05/08:30am 29.2 32.8 24.3 75 3.4 E 13 15 7 8 1006.4 1006.3 0.0
05/08:00am 28.7 32.5 24.7 79 2.8 E 13 15 7 8 1006.2 1006.1 0.0
05/07:30am 28.2 31.8 24.4 80 2.6 E 13 17 7 9 1005.8 1005.7 0.0
05/07:00am 27.6 31.5 24.2 82 2.4 ESE 11 13 6 7 1005.6 1005.5 0.0
05/06:30am 27.9 33.8 24.1 80 2.6 CALM 0 0 0 0 1005.5 1005.4 0.0
05/06:00am 27.9 33.7 23.9 79 2.8 CALM 0 0 0 0 1005.2 1005.1 0.0
05/05:30am 27.6 33.4 24.0 81 2.5 CALM 0 6 0 3 1004.9 1004.8 0.0
05/05:00am 27.8 32.6 24.2 81 2.5 SW 6 9 3 5 1004.7 1004.6 0.0
05/04:30am 27.7 31.4 23.9 80 2.6 WSW 11 13 6 7 1004.5 1004.4 0.0
05/04:00am 27.9 31.6 24.5 82 2.4 WSW 13 17 7 9 1004.3 1004.2 0.0
05/03:30am 27.7 32.1 25.1 86 1.8 SW 11 13 6 7 1004.3 1004.2 0.0
05/03:00am 27.7 32.1 25.1 86 1.8 SW 11 13 6 7 1004.3 1004.2 0.0
05/02:30am 28.1 32.4 24.9 83 2.2 SSW 11 13 6 7 1004.5 1004.4 0.0
05/02:00am 28.4 30.9 24.8 81 2.5 W 20 24 11 13 1004.6 1004.5 0.0
05/01:30am 28.4 30.7 24.4 79 2.8 WNW 20 26 11 14 1004.9 1004.8 0.0
05/01:00am 28.3 31.8 25.5 85 2.0 WNW 17 20 9 11 1005.3 1005.2 0.0
05/12:30am 27.9 33.1 26.3 91 1.1 W 11 15 6 8 1005.7 1005.6 0.0
05/12:00am 27.6 33.8 25.2 87 1.7 SW 2 6 1 3 1005.7 1005.6 0.0
 
Date/Time
CST
Temp
°C
App
Temp
°C
Dew
Point
°C
Rel
Hum
%
Delta-T
°C
Wind Press
QNH
hPa
Press
MSL
hPa
Rain since
9am
mm
Dir  Spd
km/h
Gust
km/h
Spd
kts
Gust
kts
04/11:30pm 27.7 32.8 24.9 85 2.0 SSW 7 9 4 5 1005.7 1005.6 0.0
04/11:00pm 27.8 32.0 24.8 84 2.1 SW 11 15 6 8 1005.7 1005.6 0.0
04/10:30pm 28.5 31.1 25.5 84 2.1 W 22 28 12 15 1005.6 1005.5 0.0
04/10:00pm 28.7 30.8 25.3 82 2.4 W 24 32 13 17 1005.4 1005.3 0.0
04/09:30pm 29.1 30.2 24.4 76 3.3 W 26 33 14 18 1005.2 1005.1 0.0
04/09:00pm 29.1 29.1 23.8 73 3.7 W 30 35 16 19 1005.0 1004.9 0.0
04/08:30pm 29.0 29.6 24.8 78 2.9 W 30 35 16 19 1004.8 1004.7 0.0
04/08:00pm 29.0 29.1 24.6 77 3.1 W 32 39 17 21 1004.1 1004.0 0.0
04/07:30pm 29.3 29.9 24.8 77 3.2 W 30 33 16 18 1004.0 1003.9 0.0
04/07:00pm 29.5 29.6 24.6 75 3.4 W 32 35 17 19 1003.8 1003.7 0.0
04/06:30pm 29.5 30.1 25.3 78 3.0 WNW 32 37 17 20 1003.4 1003.3 0.0
04/06:00pm 30.0 30.7 25.5 77 3.2 WNW 32 41 17 22 1003.0 1002.9 0.0
04/05:30pm 30.1 30.2 24.9 73 3.7 WNW 33 39 18 21 1002.5 1002.4 0.0
04/05:00pm 30.6 31.1 25.2 73 3.8 WNW 32 39 17 21 1002.7 1002.6 0.0
04/04:30pm 30.5 30.9 25.1 73 3.8 WNW 32 39 17 21 1002.9 1002.8 0.0
04/04:00pm 30.6 31.8 25.7 75 3.5 WNW 30 35 16 19 1003.2 1003.1 0.0
04/03:30pm 30.5 30.8 24.2 69 4.4 WNW 30 35 16 19 1003.7 1003.6 0.0
04/03:00pm 30.5 31.3 24.4 70 4.3 WNW 28 32 15 17 1004.1 1004.0 0.0
04/02:30pm 30.2 31.7 25.0 73 3.7 WNW 26 30 14 16 1004.3 1004.2 0.0
04/02:00pm 30.0 31.7 24.6 73 3.8 W 24 28 13 15 1004.5 1004.4 0.0
04/01:30pm 30.0 31.4 24.2 71 4.0 WNW 24 28 13 15 1004.8 1004.7 0.0
04/01:00pm 29.9 31.9 24.5 73 3.8 WNW 22 26 12 14 1005.3 1005.2 0.0
04/12:30pm 30.2 32.4 24.8 73 3.8 W 22 28 12 15 1005.6 1005.5 0.0
04/12:00pm 29.8 31.5 24.7 74 3.6 W 24 28 13 15 1005.9 1005.8 0.0
04/11:30am 29.5 32.0 24.4 74 3.6 WNW 19 22 10 12 1005.9 1005.8 0.0
04/11:00am 28.7 30.2 23.1 71 3.8 NW 20 26 11 14 1006.3 1006.2 0.0
04/10:30am 29.1 31.0 23.8 73 3.7 NW 20 26 11 14 1006.3 1006.2 5.4
04/10:00am 27.1 28.2 23.1 79 2.7 NNW 22 30 12 16 1006.5 1006.4 5.4
04/09:30am 27.6 28.8 23.8 80 2.6 NW 24 28 13 15 1006.5 1006.4 5.4
04/09:00am 27.2 28.7 23.0 78 2.9 WNW 20 24 11 13 1006.5 1006.4 5.4
04/08:30am 26.5 26.4 23.6 84 2.0 WNW 30 32 16 17 1005.8 1005.7 5.4
04/08:00am 26.6 27.8 23.9 85 1.9 NNW 24 28 13 15 1005.6 1005.5 5.4
04/07:30am 25.8 27.2 23.5 87 1.6 NW 22 26 12 14 1005.5 1005.4 5.2
04/07:00am 26.1 30.2 24.0 88 1.4 S 9 13 5 7 1005.8 1005.7 4.2
04/06:30am 27.9 32.0 24.5 82 2.4 NNW 11 15 6 8 1005.1 1005.0 0.0
04/06:00am 28.1 31.4 24.5 81 2.5 WNW 15 19 8 10 1004.8 1004.7 0.0
04/05:30am 28.1 30.7 24.9 83 2.2 W 20 24 11 13 1004.2 1004.1 0.0
04/05:00am 27.9 30.1 24.9 84 2.1 W 22 26 12 14 1004.0 1003.9 0.0
04/04:30am 28.2 30.2 24.6 81 2.5 W 22 28 12 15 1003.9 1003.8 0.0
04/04:00am 28.2 29.2 24.2 79 2.8 WSW 26 30 14 16 1003.7 1003.6 0.0
04/03:30am 28.3 28.5 23.4 75 3.4 WSW 28 32 15 17 1004.0 1003.9 0.0
04/03:00am 28.4 28.3 22.9 72 3.7 W 28 33 15 18 1004.1 1004.0 0.0
04/02:30am 28.4 28.3 22.9 72 3.8 W 28 32 15 17 1004.2 1004.1 0.0
04/02:00am 28.2 28.5 23.6 76 3.2 WNW 28 32 15 17 1004.6 1004.5 0.0
04/01:30am 28.3 29.8 24.3 79 2.8 WNW 24 28 13 15 1005.0 1004.9 0.0
04/01:00am 28.3 28.9 24.1 78 2.9 WNW 28 32 15 17 1005.3 1005.2 0.0
04/12:30am 28.4 29.7 24.0 77 3.0 NW 24 30 13 16 1005.2 1005.1 0.0
04/12:00am 28.7 29.8 24.3 77 3.1 WNW 26 32 14 17 1005.3 1005.2 0.0
 
Date/Time
CST
Temp
°C
App
Temp
°C
Dew
Point
°C
Rel
Hum
%
Delta-T
°C
Wind Press
QNH
hPa
Press
MSL
hPa
Rain since
9am
mm
Dir  Spd
km/h
Gust
km/h
Spd
kts
Gust
kts
03/11:30pm 28.7 30.6 23.4 73 3.6 NW 19 22 10 12 1005.7 1005.6 0.0

Other formats

Comma delimited format used in spreadsheet applications
http://www.bom.gov.au/fwo/IDD60801/IDD60801.94102.axf

JavaScript Object Notation format (JSON) in row-major order
http://www.bom.gov.au/fwo/IDD60801/IDD60801.94102.json

Data quality

Most of these data are generated automatically and are frequently updated. Quality checks on data are not normally performed. It is possible for incorrect values to appear. Refer to information at About Latest Weather Observations and please check the disclaimer before using these data.